Aviation Digital Data Service (ADDS)

Output produced by METARs form (1623 UTC 23 September 2020)
found at http://aviationweather.gov/metar/data/
 
KCXO 231535Z 2316/2412 34009KT P6SM OVC007 
     TEMPO 2316/2318 4SM BR OVC005 
     FM231800 34012KT P6SM VCSH OVC010 
     FM240000 35007KT P6SM OVC015 
     FM240600 34005KT P6SM BKN015 BKN050